createdAt,value
2017-05-27T00:00:11.329Z,15.7
2017-05-27T00:10:11.378Z,15.57
2017-05-27T00:20:11.329Z,15.66
2017-05-27T00:30:11.387Z,15.64
2017-05-27T00:40:11.389Z,15.45
2017-05-27T00:50:11.325Z,15.43
2017-05-27T01:00:11.378Z,15.36
2017-05-27T01:10:11.351Z,15.42
2017-05-27T01:20:11.311Z,15.41
2017-05-27T01:30:11.382Z,15.46
2017-05-27T01:40:11.328Z,15.43
2017-05-27T01:50:11.394Z,15.59
2017-05-27T02:00:11.357Z,15.43
2017-05-27T02:10:11.324Z,15.3
2017-05-27T02:20:11.372Z,15.17
2017-05-27T02:30:11.331Z,14.93
2017-05-27T02:40:11.306Z,14.81
2017-05-27T02:50:11.359Z,14.91
2017-05-27T03:00:11.308Z,14.83
2017-05-27T03:10:11.410Z,14.62
2017-05-27T03:20:11.363Z,14.52
2017-05-27T03:30:11.301Z,14.43
2017-05-27T03:40:11.366Z,14.53
2017-05-27T03:50:11.353Z,14.81
2017-05-27T04:00:11.296Z,15.05
2017-05-27T04:10:11.397Z,14.88
2017-05-27T04:20:11.302Z,15.21
2017-05-27T04:30:11.385Z,15.19
2017-05-27T04:40:11.388Z,15.38
2017-05-27T04:50:11.294Z,15.99
2017-05-27T05:00:11.374Z,16.49
2017-05-27T05:10:11.330Z,17.28
2017-05-27T05:20:11.277Z,17.57
2017-05-27T05:30:11.350Z,18.06
2017-05-27T05:40:11.330Z,18.79
2017-05-27T05:50:11.381Z,19.5
2017-05-27T06:00:11.334Z,20.3
2017-05-27T06:10:11.314Z,22.44
2017-05-27T06:20:11.268Z,28.8
2017-05-27T06:30:11.319Z,32.06
2017-05-27T06:40:11.299Z,33.41
2017-05-27T06:50:11.357Z,34.66
2017-05-27T07:00:11.289Z,35.93
2017-05-27T07:10:11.294Z,37.38
2017-05-27T07:20:11.334Z,37.48
2017-05-27T07:30:11.320Z,38.11
2017-05-27T07:40:11.308Z,38.68
2017-05-27T07:50:11.305Z,39.96
2017-05-27T08:00:11.306Z,40.3
2017-05-27T08:10:11.321Z,40.69
2017-05-27T08:20:11.323Z,40.43
2017-05-27T08:30:11.345Z,40.53
2017-05-27T08:40:11.323Z,40.99
2017-05-27T08:50:11.326Z,40.98
2017-05-27T09:00:11.343Z,41.22
2017-05-27T09:10:11.342Z,35.86
2017-05-27T09:20:11.360Z,32.47
2017-05-27T09:30:11.336Z,30.75
2017-05-27T09:40:11.355Z,29.41
2017-05-27T09:50:11.353Z,29.15
2017-05-27T10:00:11.352Z,28.95
2017-05-27T10:10:11.365Z,28.78
2017-05-27T10:20:11.360Z,28.81
2017-05-27T10:30:11.341Z,28.84
2017-05-27T10:40:11.390Z,28.7
2017-05-27T10:50:11.356Z,28.7
2017-05-27T11:00:11.348Z,28.62
2017-05-27T11:10:11.386Z,28.68
2017-05-27T11:20:11.366Z,28.65
2017-05-27T11:30:11.378Z,28.69
2017-05-27T11:40:11.367Z,28.56
2017-05-27T11:50:11.361Z,28.68
2017-05-27T12:00:11.382Z,28.82
2017-05-27T12:10:11.365Z,28.85
2017-05-27T12:20:11.380Z,29.25
2017-05-27T12:30:11.377Z,29.49
2017-05-27T12:40:11.363Z,29.55
2017-05-27T12:50:11.367Z,29.6
2017-05-27T13:00:11.375Z,29.6
2017-05-27T13:10:11.391Z,29.74
2017-05-27T13:20:11.373Z,29.75
2017-05-27T13:30:11.383Z,30.12
2017-05-27T13:40:11.387Z,30.34
2017-05-27T13:50:11.376Z,30.31
2017-05-27T14:00:11.378Z,30.37
2017-05-27T14:10:11.391Z,30.71
2017-05-27T14:20:11.407Z,30.47
2017-05-27T14:30:11.400Z,30.36
2017-05-27T14:40:11.393Z,30.65
2017-05-27T14:50:11.410Z,30.57
2017-05-27T15:00:11.406Z,30.5
2017-05-27T15:10:11.423Z,30.69
2017-05-27T15:20:11.415Z,30.71
2017-05-27T15:30:11.429Z,30.59
2017-05-27T15:40:11.450Z,30.69
2017-05-27T15:50:11.428Z,30.62
2017-05-27T16:00:11.417Z,30.68
2017-05-27T16:10:11.422Z,30.54
2017-05-27T16:20:11.433Z,30.4
2017-05-27T16:30:11.426Z,30.38
2017-05-27T16:40:11.436Z,30.36
2017-05-27T16:50:11.441Z,30.16
2017-05-27T17:00:11.446Z,29.97
2017-05-27T17:10:11.432Z,29.92
2017-05-27T17:20:11.438Z,29.68
2017-05-27T17:30:11.463Z,29.6
2017-05-27T17:40:11.422Z,29.41
2017-05-27T17:50:11.445Z,29.06
2017-05-27T18:00:11.442Z,28.85
2017-05-27T18:10:11.464Z,28.63
2017-05-27T18:20:11.466Z,28.5
2017-05-27T18:30:11.445Z,28.25
2017-05-27T18:40:11.459Z,27.71
2017-05-27T18:50:11.528Z,27.39
2017-05-27T19:00:11.456Z,26.8
2017-05-27T19:10:11.456Z,26.5
2017-05-27T19:20:11.481Z,25.89
2017-05-27T19:30:11.459Z,25.32
2017-05-27T19:40:11.473Z,24.92
2017-05-27T19:50:11.467Z,24.42
2017-05-27T20:00:11.466Z,23.89
2017-05-27T20:10:11.466Z,23.45
2017-05-27T20:20:11.473Z,23.09
2017-05-27T20:30:11.459Z,22.82
2017-05-27T20:40:11.478Z,22.69
2017-05-27T20:50:11.555Z,22.57
2017-05-27T21:00:11.504Z,22.67
2017-05-27T21:10:11.487Z,22.64
2017-05-27T21:20:11.472Z,22.56
2017-05-27T21:30:11.484Z,22.6
2017-05-27T21:40:11.475Z,22.52
2017-05-27T21:50:11.484Z,22.34
2017-05-27T22:00:11.488Z,22.22
2017-05-27T22:10:11.491Z,21.97
2017-05-27T22:20:11.469Z,21.85
2017-05-27T22:30:12.033Z,21.76
2017-05-27T22:40:11.498Z,21.39
2017-05-27T22:50:11.828Z,21.38
2017-05-27T23:00:11.488Z,21.32
2017-05-27T23:10:11.487Z,21.2
2017-05-27T23:20:11.492Z,20.95
2017-05-27T23:30:11.495Z,20.77
2017-05-27T23:40:11.506Z,20.64
2017-05-27T23:50:11.485Z,20.24
